Nevsehir, Turkey

12:06 PM EEST on September 21, 2014 (GMT +0300)
Kapadokya | Change Station
CLOSE
Current Station
Airport
Location: NEVSEHIR,
Elevation: 3100 ft
Nearby Weather Stations

Elev 3100 ft 38.77 °N, 34.53 °E | Updated 16 minutes ago

Scattered Clouds
Scattered Clouds
68 °F
Feels Like 68 °F
N
6
Wind Variable Wind from Variable

Today
High -- | Low -- °F
--% Chance of Precip.
Yesterday
High -- | Low -- °F
Precip. -- in
6:27 AM 6:40 PM
Waning Crescent, 8% visible
Pressure 30.04 in
Visibility 6.2 miles
Clouds Scattered Clouds 4000 ft
Dew Point 39 °F
Humidity 35%
Rainfall 0.00 in
Snow Depth Not available.
UV 7 out of 12
Pollen Not available.
Air Quality Not available.
Flu Activity Not available.
METAR LTAZ 210850Z VRB05KT 9999 SCT040 20/04 Q1017 RMK RWY29 16004KT 060V220

More Conditions Fewer Conditions

Pressure 30.04 in
Visibility 6.2 miles
Clouds Scattered Clouds 4000 ft
Dew Point 39 °F
Humidity 35%
Rainfall 0.00 in
Snow Depth Not available.
UV 7 out of 12
Pollen Not available.
Air Quality Not available.
Flu Activity Not available.
METAR LTAZ 210850Z VRB05KT 9999 SCT040 20/04 Q1017 RMK RWY29 16004KT 060V220

More Conditions Fewer Conditions

10-Day Weather Forecast

Almanac

Astronomy

Sep. 21, 2014 Rise Set
Actual Time 6:27 AM EEST 6:40 PM EEST
Civil Twilight 6:01 AM EEST 7:06 PM EEST
Nautical Twilight 5:30 AM EEST 7:37 PM EEST
Astronomical Twilight 4:58 AM EEST 8:09 PM EEST
Moon 3:44 AM EEST 5:04 PM EEST
Length of Visible Light 13h 05m
Length of Day
12h 12m
Tomorrow will be 2m 29s shorter.
Waning Crescent, 8% of the Moon is Illuminated
Today
Waning Crescent
Sep 24
New
Oct 1
First Quarter
Oct 8
Full
Oct 15
Last Quarter

Yesterday's Extremes

Country Highs Country Lows

Community

WunderPhotos

Upload Photos

1,755,100 photos uploaded!

Nearby

Snow Depth

Not available.

Earthquake Activity

City Distance Mag. Time & Date
No recent earthquake activity has been reported nearby.
Minimum magnitude displayed is 2.5.

Coastal Water Temperatures

Place Temperature
No Stations Reporting

Nearby Weather Stations